sensor_id;sensor_type;location;lat;lon;timestamp;pressure;altitude;pressure_sealevel;temperature;humidity
47985;BME280;33753;52.912;-7.342;2023-01-25T00:00:48;102466.00;;;7.89;100.00
47985;BME280;33753;52.912;-7.342;2023-01-25T00:03:16;102457.91;;;7.89;100.00
47985;BME280;33753;52.912;-7.342;2023-01-25T00:05:45;102458.47;;;7.94;100.00
47985;BME280;33753;52.912;-7.342;2023-01-25T00:08:13;102450.38;;;7.94;100.00
47985;BME280;33753;52.912;-7.342;2023-01-25T00:10:42;102445.28;;;7.90;100.00
47985;BME280;33753;52.912;-7.342;2023-01-25T00:13:10;102447.88;;;7.91;100.00
47985;BME280;33753;52.912;-7.342;2023-01-25T00:15:38;102440.34;;;7.84;100.00
47985;BME280;33753;52.912;-7.342;2023-01-25T00:18:08;102446.47;;;7.86;100.00
47985;BME280;33753;52.912;-7.342;2023-01-25T00:20:36;102451.34;;;7.93;100.00
47985;BME280;33753;52.912;-7.342;2023-01-25T00:23:04;102454.16;;;7.92;100.00
47985;BME280;33753;52.912;-7.342;2023-01-25T00:25:32;102456.72;;;7.93;100.00
47985;BME280;33753;52.912;-7.342;2023-01-25T00:28:01;102450.28;;;7.96;100.00
47985;BME280;33753;52.912;-7.342;2023-01-25T00:30:29;102454.16;;;7.92;100.00
47985;BME280;33753;52.912;-7.342;2023-01-25T00:32:57;102449.94;;;7.88;100.00
47985;BME280;33753;52.912;-7.342;2023-01-25T00:35:30;102453.69;;;7.85;100.00
47985;BME280;33753;52.912;-7.342;2023-01-25T00:38:00;102442.81;;;7.87;100.00
47985;BME280;33753;52.912;-7.342;2023-01-25T00:40:28;102441.84;;;7.88;100.00
47985;BME280;33753;52.912;-7.342;2023-01-25T00:42:57;102441.63;;;7.91;100.00
47985;BME280;33753;52.912;-7.342;2023-01-25T00:45:26;102434.50;;;7.90;100.00
47985;BME280;33753;52.912;-7.342;2023-01-25T00:47:55;102439.06;;;7.89;100.00
47985;BME280;33753;52.912;-7.342;2023-01-25T00:50:23;102427.41;;;7.89;100.00
47985;BME280;33753;52.912;-7.342;2023-01-25T00:52:53;102440.88;;;7.89;100.00
47985;BME280;33753;52.912;-7.342;2023-01-25T00:55:21;102437.97;;;7.92;100.00
47985;BME280;33753;52.912;-7.342;2023-01-25T00:57:49;102443.38;;;7.92;100.00
47985;BME280;33753;52.912;-7.342;2023-01-25T01:00:18;102444.44;;;7.89;100.00
47985;BME280;33753;52.912;-7.342;2023-01-25T01:02:46;102430.97;;;7.89;100.00
47985;BME280;33753;52.912;-7.342;2023-01-25T01:05:14;102436.25;;;7.91;100.00
47985;BME280;33753;52.912;-7.342;2023-01-25T01:07:42;102443.38;;;7.92;100.00
47985;BME280;33753;52.912;-7.342;2023-01-25T01:10:12;102439.59;;;7.94;100.00
47985;BME280;33753;52.912;-7.342;2023-01-25T01:12:40;102445.75;;;7.96;100.00
47985;BME280;33753;52.912;-7.342;2023-01-25T01:15:09;102437.75;;;7.95;100.00
47985;BME280;33753;52.912;-7.342;2023-01-25T01:17:37;102441.22;;;7.97;100.00
47985;BME280;33753;52.912;-7.342;2023-01-25T01:20:06;102442.59;;;7.90;100.00
47985;BME280;33753;52.912;-7.342;2023-01-25T01:22:34;102436.81;;;7.96;100.00
47985;BME280;33753;52.912;-7.342;2023-01-25T01:25:03;102440.47;;;7.95;100.00
47985;BME280;33753;52.912;-7.342;2023-01-25T01:27:33;102441.22;;;7.97;100.00
47985;BME280;33753;52.912;-7.342;2023-01-25T01:30:01;102449.41;;;7.95;100.00
47985;BME280;33753;52.912;-7.342;2023-01-25T01:32:30;102445.75;;;7.96;100.00
47985;BME280;33753;52.912;-7.342;2023-01-25T01:34:58;102451.13;;;7.96;100.00
47985;BME280;33753;52.912;-7.342;2023-01-25T01:37:26;102436.13;;;7.92;100.00
47985;BME280;33753;52.912;-7.342;2023-01-25T01:39:55;102439.69;;;7.93;100.00
47985;BME280;33753;52.912;-7.342;2023-01-25T01:42:23;102441.63;;;7.91;100.00
47985;BME280;33753;52.912;-7.342;2023-01-25T01:44:53;102438.84;;;7.92;100.00
47985;BME280;33753;52.912;-7.342;2023-01-25T01:47:23;102432.81;;;7.89;100.00
47985;BME280;33753;52.912;-7.342;2023-01-25T01:50:00;102436.69;;;7.85;100.00
47985;BME280;33753;52.912;-7.342;2023-01-25T01:52:34;102431.94;;;7.88;100.00
47985;BME280;33753;52.912;-7.342;2023-01-25T01:55:05;102427.50;;;7.87;100.00
47985;BME280;33753;52.912;-7.342;2023-01-25T01:57:37;102425.91;;;7.85;100.00
47985;BME280;33753;52.912;-7.342;2023-01-25T02:00:13;102423.00;;;7.88;100.00
47985;BME280;33753;52.912;-7.342;2023-01-25T02:02:43;102415.13;;;7.85;100.00
47985;BME280;33753;52.912;-7.342;2023-01-25T02:05:15;102418.34;;;7.90;100.00
47985;BME280;33753;52.912;-7.342;2023-01-25T02:07:45;102423.94;;;7.87;100.00
47985;BME280;33753;52.912;-7.342;2023-01-25T02:10:17;102426.97;;;7.82;100.00
47985;BME280;33753;52.912;-7.342;2023-01-25T02:12:46;102422.22;;;7.86;100.00
47985;BME280;33753;52.912;-7.342;2023-01-25T02:15:16;102423.22;;;7.85;100.00
47985;BME280;33753;52.912;-7.342;2023-01-25T02:17:44;102430.50;;;7.83;100.00
47985;BME280;33753;52.912;-7.342;2023-01-25T02:20:14;102443.59;;;7.89;100.00
47985;BME280;33753;52.912;-7.342;2023-01-25T02:22:47;102443.59;;;7.89;100.00
47985;BME280;33753;52.912;-7.342;2023-01-25T02:25:22;102443.66;;;7.87;100.00
47985;BME280;33753;52.912;-7.342;2023-01-25T02:27:52;102446.16;;;7.90;100.00
47985;BME280;33753;52.912;-7.342;2023-01-25T02:30:22;102442.91;;;7.85;100.00
47985;BME280;33753;52.912;-7.342;2023-01-25T02:32:51;102445.50;;;7.87;100.00
47985;BME280;33753;52.912;-7.342;2023-01-25T02:35:19;102446.28;;;7.89;100.00
47985;BME280;33753;52.912;-7.342;2023-01-25T02:37:48;102440.97;;;7.87;100.00
47985;BME280;33753;52.912;-7.342;2023-01-25T02:40:17;102433.00;;;7.86;100.00
47985;BME280;33753;52.912;-7.342;2023-01-25T02:42:47;102426.97;;;7.82;100.00
47985;BME280;33753;52.912;-7.342;2023-01-25T02:45:15;102427.59;;;7.86;100.00
47985;BME280;33753;52.912;-7.342;2023-01-25T02:47:46;102429.34;;;7.87;100.00
47985;BME280;33753;52.912;-7.342;2023-01-25T02:50:15;102420.50;;;7.85;100.00
47985;BME280;33753;52.912;-7.342;2023-01-25T02:52:44;102427.19;;;7.79;100.00
47985;BME280;33753;52.912;-7.342;2023-01-25T02:55:12;102434.09;;;7.83;100.00
47985;BME280;33753;52.912;-7.342;2023-01-25T02:57:42;102429.56;;;7.84;100.00
47985;BME280;33753;52.912;-7.342;2023-01-25T03:02:45;102414.91;;;7.88;100.00
47985;BME280;33753;52.912;-7.342;2023-01-25T03:05:14;102414.56;;;7.79;100.00
47985;BME280;33753;52.912;-7.342;2023-01-25T03:07:42;102415.22;;;7.83;100.00
47985;BME280;33753;52.912;-7.342;2023-01-25T03:10:10;102402.63;;;7.84;100.00
47985;BME280;33753;52.912;-7.342;2023-01-25T03:12:38;102405.91;;;7.74;100.00
47985;BME280;33753;52.912;-7.342;2023-01-25T03:15:07;102401.09;;;7.79;100.00
47985;BME280;33753;52.912;-7.342;2023-01-25T03:17:36;102404.75;;;7.78;100.00
47985;BME280;33753;52.912;-7.342;2023-01-25T03:20:06;102404.47;;;7.83;100.00
47985;BME280;33753;52.912;-7.342;2023-01-25T03:22:34;102396.66;;;7.78;100.00
47985;BME280;33753;52.912;-7.342;2023-01-25T03:25:02;102402.63;;;7.84;100.00
47985;BME280;33753;52.912;-7.342;2023-01-25T03:27:33;102406.25;;;7.83;100.00
47985;BME280;33753;52.912;-7.342;2023-01-25T03:30:06;102412.31;;;7.86;100.00
47985;BME280;33753;52.912;-7.342;2023-01-25T03:32:35;102409.75;;;7.85;100.00
47985;BME280;33753;52.912;-7.342;2023-01-25T03:35:09;102414.91;;;7.88;100.00
47985;BME280;33753;52.912;-7.342;2023-01-25T03:37:37;102416.63;;;7.89;100.00
47985;BME280;33753;52.912;-7.342;2023-01-25T03:40:05;102416.44;;;7.92;100.00
47985;BME280;33753;52.912;-7.342;2023-01-25T03:42:34;102423.50;;;7.93;100.00
47985;BME280;33753;52.912;-7.342;2023-01-25T03:45:03;102416.44;;;7.92;100.00
47985;BME280;33753;52.912;-7.342;2023-01-25T03:47:32;102419.22;;;7.90;100.00
47985;BME280;33753;52.912;-7.342;2023-01-25T03:50:01;102412.97;;;7.90;100.00
47985;BME280;33753;52.912;-7.342;2023-01-25T03:52:31;102412.00;;;7.91;100.00
47985;BME280;33753;52.912;-7.342;2023-01-25T03:55:05;102403.91;;;7.91;100.00
47985;BME280;33753;52.912;-7.342;2023-01-25T03:57:38;102413.72;;;7.92;100.00
47985;BME280;33753;52.912;-7.342;2023-01-25T04:00:07;102408.44;;;7.90;100.00
47985;BME280;33753;52.912;-7.342;2023-01-25T04:02:44;102402.94;;;7.92;100.00
47985;BME280;33753;52.912;-7.342;2023-01-25T04:05:15;102404.97;;;7.88;100.00
47985;BME280;33753;52.912;-7.342;2023-01-25T04:07:45;102402.19;;;7.90;100.00
47985;BME280;33753;52.912;-7.342;2023-01-25T04:10:18;102402.94;;;7.92;100.00
47985;BME280;33753;52.912;-7.342;2023-01-25T04:12:47;102394.88;;;7.92;100.00
47985;BME280;33753;52.912;-7.342;2023-01-25T04:15:15;102396.69;;;7.91;100.00
47985;BME280;33753;52.912;-7.342;2023-01-25T04:17:44;102398.53;;;7.91;100.00
47985;BME280;33753;52.912;-7.342;2023-01-25T04:20:20;102390.66;;;7.88;100.00
47985;BME280;33753;52.912;-7.342;2023-01-25T04:22:50;102387.75;;;7.91;100.00
47985;BME280;33753;52.912;-7.342;2023-01-25T04:25:22;102377.19;;;7.88;100.00
47985;BME280;33753;52.912;-7.342;2023-01-25T04:27:52;102380.63;;;7.90;100.00
47985;BME280;33753;52.912;-7.342;2023-01-25T04:30:20;102377.41;;;7.85;100.00
47985;BME280;33753;52.912;-7.342;2023-01-25T04:32:49;102384.50;;;7.86;100.00
47985;BME280;33753;52.912;-7.342;2023-01-25T04:35:22;102382.69;;;7.86;100.00
47985;BME280;33753;52.912;-7.342;2023-01-25T04:37:53;102376.63;;;7.83;100.00
47985;BME280;33753;52.912;-7.342;2023-01-25T04:40:24;102374.72;;;7.85;100.00
47985;BME280;33753;52.912;-7.342;2023-01-25T04:42:54;102390.22;;;7.81;100.00
47985;BME280;33753;52.912;-7.342;2023-01-25T04:45:22;102385.88;;;7.78;100.00
47985;BME280;33753;52.912;-7.342;2023-01-25T04:47:54;102390.53;;;7.76;100.00
47985;BME280;33753;52.912;-7.342;2023-01-25T04:50:22;102387.72;;;7.78;100.00
47985;BME280;33753;52.912;-7.342;2023-01-25T04:52:51;102387.72;;;7.78;100.00
47985;BME280;33753;52.912;-7.342;2023-01-25T04:55:23;102381.59;;;7.76;100.00
47985;BME280;33753;52.912;-7.342;2023-01-25T04:57:53;102382.56;;;7.75;100.00
47985;BME280;33753;52.912;-7.342;2023-01-25T05:00:21;102383.41;;;7.75;100.00
47985;BME280;33753;52.912;-7.342;2023-01-25T05:02:50;102391.38;;;7.77;100.00
47985;BME280;33753;52.912;-7.342;2023-01-25T05:05:18;102394.97;;;7.77;100.00
47985;BME280;33753;52.912;-7.342;2023-01-25T05:07:47;102395.06;;;7.76;100.00
47985;BME280;33753;52.912;-7.342;2023-01-25T05:10:15;102385.03;;;7.78;100.00
47985;BME280;33753;52.912;-7.342;2023-01-25T05:13:05;102384.38;;;7.74;100.00
47985;BME280;33753;52.912;-7.342;2023-01-25T05:15:33;102383.19;;;7.78;100.00
47985;BME280;33753;52.912;-7.342;2023-01-25T05:18:02;102383.19;;;7.78;100.00
47985;BME280;33753;52.912;-7.342;2023-01-25T05:20:32;102383.19;;;7.78;100.00
47985;BME280;33753;52.912;-7.342;2023-01-25T05:23:00;102386.09;;;7.75;100.00
47985;BME280;33753;52.912;-7.342;2023-01-25T05:25:30;102379.53;;;7.79;100.00
47985;BME280;33753;52.912;-7.342;2023-01-25T05:28:24;102367.25;;;7.75;100.00
47985;BME280;33753;52.912;-7.342;2023-01-25T05:31:18;102372.63;;;7.75;100.00
47985;BME280;33753;52.912;-7.342;2023-01-25T05:33:47;102370.50;;;7.81;100.00
47985;BME280;33753;52.912;-7.342;2023-01-25T05:36:17;102361.88;;;7.75;100.00
47985;BME280;33753;52.912;-7.342;2023-01-25T05:38:45;102360.78;;;7.78;100.00
47985;BME280;33753;52.912;-7.342;2023-01-25T05:41:13;102357.25;;;7.77;100.00
47985;BME280;33753;52.912;-7.342;2023-01-25T05:43:44;102361.00;;;7.75;100.00
47985;BME280;33753;52.912;-7.342;2023-01-25T05:46:17;102351.31;;;7.72;100.00
47985;BME280;33753;52.912;-7.342;2023-01-25T05:48:46;102345.69;;;7.75;100.00
47985;BME280;33753;52.912;-7.342;2023-01-25T05:51:15;102338.78;;;7.71;100.00
47985;BME280;33753;52.912;-7.342;2023-01-25T05:53:43;102333.63;;;7.68;100.00
47985;BME280;33753;52.912;-7.342;2023-01-25T05:56:12;102339.00;;;7.68;100.00
47985;BME280;33753;52.912;-7.342;2023-01-25T05:58:40;102335.56;;;7.66;100.00
47985;BME280;33753;52.912;-7.342;2023-01-25T06:01:10;102331.47;;;7.60;100.00
47985;BME280;33753;52.912;-7.342;2023-01-25T06:03:46;102333.41;;;7.58;100.00
47985;BME280;33753;52.912;-7.342;2023-01-25T06:06:15;102340.06;;;7.53;100.00
47985;BME280;33753;52.912;-7.342;2023-01-25T06:08:44;102343.94;;;7.49;100.00
47985;BME280;33753;52.912;-7.342;2023-01-25T06:11:15;102342.44;;;7.44;100.00
47985;BME280;33753;52.912;-7.342;2023-01-25T06:13:45;102330.16;;;7.40;100.00
47985;BME280;33753;52.912;-7.342;2023-01-25T06:16:15;102332.63;;;7.43;100.00
47985;BME280;33753;52.912;-7.342;2023-01-25T06:19:19;102340.50;;;7.47;100.00
47985;BME280;33753;52.912;-7.342;2023-01-25T06:22:06;102335.22;;;7.45;100.00
47985;BME280;33753;52.912;-7.342;2023-01-25T06:24:35;102335.00;;;7.48;100.00
47985;BME280;33753;52.912;-7.342;2023-01-25T06:27:03;102349.97;;;7.52;100.00
47985;BME280;33753;52.912;-7.342;2023-01-25T06:29:31;102350.84;;;7.53;100.00
47985;BME280;33753;52.912;-7.342;2023-01-25T06:32:02;102352.56;;;7.54;100.00
47985;BME280;33753;52.912;-7.342;2023-01-25T06:34:30;102365.72;;;7.58;100.00
47985;BME280;33753;52.912;-7.342;2023-01-25T06:36:59;102369.06;;;7.62;100.00
47985;BME280;33753;52.912;-7.342;2023-01-25T06:39:27;102369.81;;;7.64;100.00
47985;BME280;33753;52.912;-7.342;2023-01-25T06:41:55;102361.75;;;7.64;100.00
47985;BME280;33753;52.912;-7.342;2023-01-25T06:44:24;102363.69;;;7.62;100.00
47985;BME280;33753;52.912;-7.342;2023-01-25T06:46:52;102361.00;;;7.62;100.00
47985;BME280;33753;52.912;-7.342;2023-01-25T06:49:22;102352.59;;;7.67;100.00
47985;BME280;33753;52.912;-7.342;2023-01-25T06:51:51;102356.91;;;7.69;100.00
47985;BME280;33753;52.912;-7.342;2023-01-25T06:54:19;102345.28;;;7.69;100.00
47985;BME280;33753;52.912;-7.342;2023-01-25T06:56:47;102341.38;;;7.73;100.00
47985;BME280;33753;52.912;-7.342;2023-01-25T06:59:15;102330.81;;;7.70;100.00
47985;BME280;33753;52.912;-7.342;2023-01-25T07:01:44;102339.91;;;7.69;100.00
47985;BME280;33753;52.912;-7.342;2023-01-25T07:04:12;102337.84;;;7.72;100.00
47985;BME280;33753;52.912;-7.342;2023-01-25T07:06:42;102328.69;;;7.75;100.00
47985;BME280;33753;52.912;-7.342;2023-01-25T07:09:11;102327.81;;;7.74;100.00
47985;BME280;33753;52.912;-7.342;2023-01-25T07:11:40;102309.81;;;7.75;100.00
47985;BME280;33753;52.912;-7.342;2023-01-25T07:14:09;102309.50;;;7.67;100.00
47985;BME280;33753;52.912;-7.342;2023-01-25T07:16:37;102297.66;;;7.69;100.00
47985;BME280;33753;52.912;-7.342;2023-01-25T07:19:05;102283.00;;;7.73;100.00
47985;BME280;33753;52.912;-7.342;2023-01-25T07:21:34;102259.50;;;7.75;100.00
47985;BME280;33753;52.912;-7.342;2023-01-25T07:24:04;102252.59;;;7.71;100.00
47985;BME280;33753;52.912;-7.342;2023-01-25T07:26:33;102246.25;;;7.72;100.00
47985;BME280;33753;52.912;-7.342;2023-01-25T07:29:01;102255.06;;;7.74;100.00
47985;BME280;33753;52.912;-7.342;2023-01-25T07:31:30;102255.97;;;7.75;100.00
47985;BME280;33753;52.912;-7.342;2023-01-25T07:33:58;102251.41;;;7.75;100.00
47985;BME280;33753;52.912;-7.342;2023-01-25T07:36:26;102245.06;;;7.76;100.00
47985;BME280;33753;52.912;-7.342;2023-01-25T07:38:54;102256.81;;;7.75;100.00
47985;BME280;33753;52.912;-7.342;2023-01-25T07:41:25;102264.66;;;7.78;100.00
47985;BME280;33753;52.912;-7.342;2023-01-25T07:43:53;102262.63;;;7.69;100.00
47985;BME280;33753;52.912;-7.342;2023-01-25T07:46:48;102255.06;;;7.74;100.00
47985;BME280;33753;52.912;-7.342;2023-01-25T07:49:16;102248.94;;;7.72;100.00
47985;BME280;33753;52.912;-7.342;2023-01-25T07:51:44;102252.59;;;7.71;100.00
47985;BME280;33753;52.912;-7.342;2023-01-25T07:54:13;102242.72;;;7.72;100.00
47985;BME280;33753;52.912;-7.342;2023-01-25T07:56:42;102233.00;;;7.69;100.00
47985;BME280;33753;52.912;-7.342;2023-01-25T07:59:10;102238.16;;;7.72;100.00
47985;BME280;33753;52.912;-7.342;2023-01-25T08:01:39;102238.63;;;7.66;100.00
47985;BME280;33753;52.912;-7.342;2023-01-25T08:04:08;102244.22;;;7.63;100.00
47985;BME280;33753;52.912;-7.342;2023-01-25T08:06:36;102240.75;;;7.61;100.00
47985;BME280;33753;52.912;-7.342;2023-01-25T08:09:06;102249.63;;;7.63;100.00
47985;BME280;33753;52.912;-7.342;2023-01-25T08:11:35;102240.97;;;7.58;100.00
47985;BME280;33753;52.912;-7.342;2023-01-25T08:14:04;102249.63;;;7.63;100.00
47985;BME280;33753;52.912;-7.342;2023-01-25T08:16:33;102236.78;;;7.54;100.00
47985;BME280;33753;52.912;-7.342;2023-01-25T08:19:03;102244.63;;;7.57;100.00
47985;BME280;33753;52.912;-7.342;2023-01-25T08:21:32;102247.78;;;7.51;100.00
47985;BME280;33753;52.912;-7.342;2023-01-25T08:24:00;102237.00;;;7.51;100.00
47985;BME280;33753;52.912;-7.342;2023-01-25T08:26:29;102260.16;;;7.53;100.00
47985;BME280;33753;52.912;-7.342;2023-01-25T08:28:58;102275.22;;;7.56;100.00
47985;BME280;33753;52.912;-7.342;2023-01-25T08:31:28;102283.50;;;7.53;100.00
47985;BME280;33753;52.912;-7.342;2023-01-25T08:33:56;102289.69;;;7.55;100.00
47985;BME280;33753;52.912;-7.342;2023-01-25T08:36:25;102306.47;;;7.58;100.00
47985;BME280;33753;52.912;-7.342;2023-01-25T08:38:55;102308.88;;;7.63;100.00
47985;BME280;33753;52.912;-7.342;2023-01-25T08:41:24;102306.56;;;7.57;100.00
47985;BME280;33753;52.912;-7.342;2023-01-25T08:43:53;102302.59;;;7.63;100.00
47985;BME280;33753;52.912;-7.342;2023-01-25T08:46:22;102312.50;;;7.62;100.00
47985;BME280;33753;52.912;-7.342;2023-01-25T08:48:53;102310.16;;;7.57;100.00
47985;BME280;33753;52.912;-7.342;2023-01-25T08:51:22;102300.97;;;7.60;100.00
47985;BME280;33753;52.912;-7.342;2023-01-25T08:53:50;102292.25;;;7.56;100.00
47985;BME280;33753;52.912;-7.342;2023-01-25T08:56:19;102286.00;;;7.56;100.00
47985;BME280;33753;52.912;-7.342;2023-01-25T08:58:48;102282.34;;;7.57;100.00
47985;BME280;33753;52.912;-7.342;2023-01-25T09:01:17;102255.63;;;7.54;100.00
47985;BME280;33753;52.912;-7.342;2023-01-25T09:03:46;102246.03;;;7.50;100.00
47985;BME280;33753;52.912;-7.342;2023-01-25T09:06:16;102255.63;;;7.54;100.00
47985;BME280;33753;52.912;-7.342;2023-01-25T09:08:45;102245.81;;;7.53;100.00
47985;BME280;33753;52.912;-7.342;2023-01-25T09:11:14;102242.91;;;7.56;100.00
47985;BME280;33753;52.912;-7.342;2023-01-25T09:13:42;102243.78;;;7.56;100.00
47985;BME280;33753;52.912;-7.342;2023-01-25T09:16:12;102243.56;;;7.59;100.00
47985;BME280;33753;52.912;-7.342;2023-01-25T09:18:41;102260.38;;;7.63;100.00
47985;BME280;33753;52.912;-7.342;2023-01-25T09:21:12;102252.31;;;7.63;100.00
47985;BME280;33753;52.912;-7.342;2023-01-25T09:23:42;102261.88;;;7.67;100.00
47985;BME280;33753;52.912;-7.342;2023-01-25T09:26:30;102266.41;;;7.67;100.00
47985;BME280;33753;52.912;-7.342;2023-01-25T09:28:58;102272.63;;;7.67;100.00
47985;BME280;33753;52.912;-7.342;2023-01-25T09:31:26;102269.19;;;7.65;100.00
47985;BME280;33753;52.912;-7.342;2023-01-25T09:33:58;102279.75;;;7.68;100.00
47985;BME280;33753;52.912;-7.342;2023-01-25T09:36:26;102276.63;;;7.74;100.00
47985;BME280;33753;52.912;-7.342;2023-01-25T09:38:56;102278.25;;;7.77;100.00
47985;BME280;33753;52.912;-7.342;2023-01-25T09:41:39;102262.97;;;7.77;100.00
47985;BME280;33753;52.912;-7.342;2023-01-25T09:44:14;102261.22;;;7.76;100.00
47985;BME280;33753;52.912;-7.342;2023-01-25T09:46:46;102259.81;;;7.84;100.00
47985;BME280;33753;52.912;-7.342;2023-01-25T09:49:20;102249.78;;;7.86;100.00
47985;BME280;33753;52.912;-7.342;2023-01-25T09:51:56;102253.03;;;7.91;100.00
47985;BME280;33753;52.912;-7.342;2023-01-25T09:54:27;102244.81;;;7.92;100.00
47985;BME280;33753;52.912;-7.342;2023-01-25T09:57:13;102253.69;;;7.94;100.00
47985;BME280;33753;52.912;-7.342;2023-01-25T09:59:42;102259.47;;;8.01;100.00
47985;BME280;33753;52.912;-7.342;2023-01-25T10:02:17;102258.28;;;8.05;100.00
47985;BME280;33753;52.912;-7.342;2023-01-25T10:04:46;102258.16;;;8.07;100.00
47985;BME280;33753;52.912;-7.342;2023-01-25T10:07:18;102261.81;;;8.06;100.00
47985;BME280;33753;52.912;-7.342;2023-01-25T10:09:50;102271.09;;;8.15;100.00
47985;BME280;33753;52.912;-7.342;2023-01-25T10:12:21;102268.19;;;8.18;100.00
47985;BME280;33753;52.912;-7.342;2023-01-25T10:14:51;102279.47;;;8.23;100.00
47985;BME280;33753;52.912;-7.342;2023-01-25T10:17:21;102273.88;;;8.26;100.00
47985;BME280;33753;52.912;-7.342;2023-01-25T10:19:58;102279.78;;;8.31;100.00
47985;BME280;33753;52.912;-7.342;2023-01-25T10:22:31;102272.97;;;8.38;100.00
47985;BME280;33753;52.912;-7.342;2023-01-25T10:25:14;102268.34;;;8.40;100.00
47985;BME280;33753;52.912;-7.342;2023-01-25T10:27:52;102252.47;;;8.48;100.00
47985;BME280;33753;52.912;-7.342;2023-01-25T10:30:25;102254.63;;;8.56;100.00
47985;BME280;33753;52.912;-7.342;2023-01-25T10:32:54;102255.47;;;8.57;100.00
47985;BME280;33753;52.912;-7.342;2023-01-25T10:35:25;102256.63;;;8.65;100.00
47985;BME280;33753;52.912;-7.342;2023-01-25T10:38:02;102263.63;;;8.68;100.00
47985;BME280;33753;52.912;-7.342;2023-01-25T10:40:37;102251.50;;;8.74;100.00
47985;BME280;33753;52.912;-7.342;2023-01-25T10:43:10;102249.72;;;8.86;100.00
47985;BME280;33753;52.912;-7.342;2023-01-25T10:45:43;102258.69;;;8.86;100.00
47985;BME280;33753;52.912;-7.342;2023-01-25T10:48:14;102250.97;;;8.93;100.00
47985;BME280;33753;52.912;-7.342;2023-01-25T10:50:46;102252.34;;;8.98;100.00
47985;BME280;33753;52.912;-7.342;2023-01-25T10:53:25;102258.66;;;9.10;100.00
47985;BME280;33753;52.912;-7.342;2023-01-25T10:55:57;102257.22;;;9.18;100.00
47985;BME280;33753;52.912;-7.342;2023-01-25T10:58:30;102267.00;;;9.19;100.00
47985;BME280;33753;52.912;-7.342;2023-01-25T11:00:58;102261.78;;;9.28;100.00
47985;BME280;33753;52.912;-7.342;2023-01-25T11:03:32;102275.16;;;9.30;100.00
47985;BME280;33753;52.912;-7.342;2023-01-25T11:06:01;102279.97;;;9.38;100.00
47985;BME280;33753;52.912;-7.342;2023-01-25T11:08:34;102273.25;;;9.43;100.00
47985;BME280;33753;52.912;-7.342;2023-01-25T11:11:22;102278.16;;;9.49;100.00
47985;BME280;33753;52.912;-7.342;2023-01-25T11:13:51;102278.41;;;9.58;100.00
47985;BME280;33753;52.912;-7.342;2023-01-25T11:16:26;102280.72;;;9.51;100.00
47985;BME280;33753;52.912;-7.342;2023-01-25T11:18:56;102283.34;;;9.64;100.00
47985;BME280;33753;52.912;-7.342;2023-01-25T11:21:25;102279.66;;;9.65;100.00
47985;BME280;33753;52.912;-7.342;2023-01-25T11:23:58;102272.78;;;9.61;100.00
47985;BME280;33753;52.912;-7.342;2023-01-25T11:26:29;102276.06;;;9.64;100.00
47985;BME280;33753;52.912;-7.342;2023-01-25T11:29:05;102260.00;;;9.63;100.00
47985;BME280;33753;52.912;-7.342;2023-01-25T11:31:34;102260.88;;;9.63;100.00
47985;BME280;33753;52.912;-7.342;2023-01-25T11:34:04;102265.19;;;9.66;100.00
47985;BME280;33753;52.912;-7.342;2023-01-25T11:36:36;102263.91;;;9.59;100.00
47985;BME280;33753;52.912;-7.342;2023-01-25T11:39:11;102260.00;;;9.63;100.00
47985;BME280;33753;52.912;-7.342;2023-01-25T11:41:51;102263.72;;;9.73;100.00
47985;BME280;33753;52.912;-7.342;2023-01-25T11:47:13;102250.19;;;9.73;100.00
47985;BME280;33753;52.912;-7.342;2023-01-25T11:49:51;102253.63;;;9.75;100.00
47985;BME280;33753;52.912;-7.342;2023-01-25T11:52:27;102247.59;;;9.72;100.00
47985;BME280;33753;52.912;-7.342;2023-01-25T11:55:01;102240.63;;;9.80;100.00
47985;BME280;33753;52.912;-7.342;2023-01-25T11:57:46;102243.31;;;9.92;100.00
47985;BME280;33753;52.912;-7.342;2023-01-25T12:00:29;102244.41;;;9.89;100.00
47985;BME280;33753;52.912;-7.342;2023-01-25T12:05:58;102280.91;;;9.83;100.00
47985;BME280;33753;52.912;-7.342;2023-01-25T12:08:40;102273.44;;;9.29;100.00
47985;BME280;33753;52.912;-7.342;2023-01-25T12:11:14;102259.28;;;9.14;100.00
47985;BME280;33753;52.912;-7.342;2023-01-25T12:13:50;102251.22;;;8.90;100.00
47985;BME280;33753;52.912;-7.342;2023-01-25T12:16:27;102239.41;;;8.79;100.00
47985;BME280;33753;52.912;-7.342;2023-01-25T12:19:02;102239.81;;;8.62;100.00
47985;BME280;33753;52.912;-7.342;2023-01-25T12:21:41;102236.09;;;8.52;100.00
47985;BME280;33753;52.912;-7.342;2023-01-25T12:24:16;102226.03;;;8.54;100.00
47985;BME280;33753;52.912;-7.342;2023-01-25T12:26:51;102213.06;;;8.59;100.00
47985;BME280;33753;52.912;-7.342;2023-01-25T12:29:28;102206.69;;;8.60;100.00
47985;BME280;33753;52.912;-7.342;2023-01-25T12:31:59;102202.38;;;8.57;100.00
47985;BME280;33753;52.912;-7.342;2023-01-25T12:34:32;102204.34;;;8.55;100.00
47985;BME280;33753;52.912;-7.342;2023-01-25T12:37:04;102195.66;;;8.63;100.00
47985;BME280;33753;52.912;-7.342;2023-01-25T12:39:36;102202.81;;;8.75;100.00
47985;BME280;33753;52.912;-7.342;2023-01-25T12:42:11;102207.25;;;8.76;100.00
47985;BME280;33753;52.912;-7.342;2023-01-25T12:44:45;102211.69;;;8.77;100.00
47985;BME280;33753;52.912;-7.342;2023-01-25T12:47:16;102208.97;;;8.77;100.00
47985;BME280;33753;52.912;-7.342;2023-01-25T12:49:49;102199.72;;;8.69;100.00
47985;BME280;33753;52.912;-7.342;2023-01-25T12:52:19;102190.66;;;8.70;100.00
47985;BME280;33753;52.912;-7.342;2023-01-25T12:54:49;102189.28;;;8.64;100.00
47985;BME280;33753;52.912;-7.342;2023-01-25T12:57:20;102192.63;;;8.68;100.00
47985;BME280;33753;52.912;-7.342;2023-01-25T12:59:56;102193.44;;;8.57;100.00
47985;BME280;33753;52.912;-7.342;2023-01-25T13:02:33;102197.63;;;8.61;100.00
47985;BME280;33753;52.912;-7.342;2023-01-25T13:05:09;102199.59;;;8.59;100.00
47985;BME280;33753;52.912;-7.342;2023-01-25T13:07:42;102193.19;;;8.60;100.00